createdAt,value
2017-09-14T00:02:09.733Z,1.87
2017-09-14T00:04:37.337Z,1.53
2017-09-14T00:07:04.940Z,1.90
2017-09-14T00:09:32.546Z,1.80
2017-09-14T00:12:01.048Z,1.40
2017-09-14T00:14:28.695Z,1.93
2017-09-14T00:16:57.080Z,1.60
2017-09-14T00:19:25.560Z,1.57
2017-09-14T00:21:53.927Z,1.63
2017-09-14T00:24:22.345Z,1.90
2017-09-14T00:26:49.944Z,1.60
2017-09-14T00:29:17.552Z,1.67
2017-09-14T00:31:45.214Z,1.87
2017-09-14T00:34:12.812Z,1.87
2017-09-14T00:36:40.412Z,1.77
2017-09-14T00:39:08.006Z,1.47
2017-09-14T00:41:35.667Z,1.70
2017-09-14T00:44:03.316Z,1.73
2017-09-14T00:46:31.785Z,1.87
2017-09-14T00:49:00.155Z,1.50
2017-09-14T00:51:29.296Z,2.00
2017-09-14T00:53:56.895Z,2.00
2017-09-14T00:56:24.528Z,1.83
2017-09-14T00:58:52.170Z,1.33
2017-09-14T01:01:19.841Z,1.50
2017-09-14T01:03:47.436Z,1.97
2017-09-14T01:06:15.040Z,1.80
2017-09-14T01:08:43.449Z,2.17
2017-09-14T01:11:11.052Z,1.97
2017-09-14T01:13:38.756Z,2.20
2017-09-14T01:16:07.166Z,1.87
2017-09-14T01:18:34.809Z,1.73
2017-09-14T01:21:02.441Z,1.60
2017-09-14T01:23:30.070Z,2.03
2017-09-14T01:25:57.689Z,2.40
2017-09-14T01:28:25.301Z,2.03
2017-09-14T01:30:52.916Z,2.07
2017-09-14T01:33:20.518Z,2.17
2017-09-14T01:35:48.235Z,2.17
2017-09-14T01:38:16.720Z,2.33
2017-09-14T01:40:45.092Z,2.10
2017-09-14T01:43:13.462Z,2.07
2017-09-14T01:45:41.828Z,2.10
2017-09-14T01:48:10.241Z,1.60
2017-09-14T01:50:37.905Z,2.07
2017-09-14T01:53:05.549Z,2.07
2017-09-14T01:55:33.939Z,2.37
2017-09-14T01:58:02.329Z,2.10
2017-09-14T02:00:29.927Z,2.20
2017-09-14T02:02:57.584Z,1.90
2017-09-14T02:05:25.228Z,2.07
2017-09-14T02:07:52.834Z,1.77
2017-09-14T02:10:20.488Z,2.50
2017-09-14T02:12:48.205Z,2.03
2017-09-14T02:15:15.816Z,1.77
2017-09-14T02:17:43.416Z,1.93
2017-09-14T02:20:11.921Z,2.30
2017-09-14T02:22:39.552Z,1.97
2017-09-14T02:25:07.949Z,2.20
2017-09-14T02:27:35.584Z,2.77
2017-09-14T02:30:03.197Z,2.30
2017-09-14T02:32:30.828Z,2.43
2017-09-14T02:34:59.589Z,2.40
2017-09-14T02:37:27.194Z,2.40
2017-09-14T02:39:54.801Z,2.23
2017-09-14T02:42:22.516Z,3.10
2017-09-14T02:44:50.187Z,2.60
2017-09-14T02:47:17.798Z,2.60
2017-09-14T02:49:45.447Z,2.67
2017-09-14T02:52:13.165Z,2.43
2017-09-14T02:54:40.824Z,3.50
2017-09-14T02:57:09.196Z,2.93
2017-09-14T02:59:37.583Z,2.13
2017-09-14T03:02:05.972Z,3.17
2017-09-14T03:04:33.579Z,2.90
2017-09-14T03:07:01.291Z,1.97
2017-09-14T03:09:29.661Z,2.13
2017-09-14T03:11:58.035Z,2.63
2017-09-14T03:14:26.413Z,3.60
2017-09-14T03:16:54.784Z,2.53
2017-09-14T03:19:22.476Z,2.47
2017-09-14T03:21:50.120Z,2.70
2017-09-14T03:24:18.485Z,2.50
2017-09-14T03:26:46.131Z,2.40
2017-09-14T03:29:13.881Z,2.47
2017-09-14T03:31:41.484Z,3.47
2017-09-14T03:34:09.885Z,2.67
2017-09-14T03:36:37.488Z,2.57
2017-09-14T03:39:05.096Z,2.50
2017-09-14T03:41:33.464Z,2.00
2017-09-14T03:44:02.615Z,2.13
2017-09-14T03:46:30.216Z,2.63
2017-09-14T03:48:57.821Z,2.60
2017-09-14T03:51:25.428Z,2.23
2017-09-14T03:53:53.072Z,1.97
2017-09-14T03:56:20.672Z,1.83
2017-09-14T03:58:48.357Z,2.40
2017-09-14T04:01:16.717Z,2.20
2017-09-14T04:03:45.085Z,2.30
2017-09-14T04:06:12.678Z,1.93
2017-09-14T04:08:40.286Z,2.50
2017-09-14T04:11:07.951Z,2.10
2017-09-14T04:13:35.593Z,2.57
2017-09-14T04:16:03.194Z,2.30
2017-09-14T04:18:30.892Z,2.00
2017-09-14T04:20:58.496Z,2.00
2017-09-14T04:23:26.120Z,1.90
2017-09-14T04:25:53.780Z,1.80
2017-09-14T04:28:21.413Z,1.70
2017-09-14T04:30:49.060Z,2.03
2017-09-14T04:33:16.772Z,1.50
2017-09-14T04:35:44.404Z,1.83
2017-09-14T04:38:12.100Z,1.93
2017-09-14T04:40:39.732Z,2.10
2017-09-14T04:43:08.148Z,2.10
2017-09-14T04:45:35.801Z,2.30
2017-09-14T04:48:03.428Z,2.57
2017-09-14T04:50:31.100Z,3.03
2017-09-14T04:52:58.697Z,2.60
2017-09-14T04:55:26.328Z,2.30
2017-09-14T04:57:54.740Z,3.33
2017-09-14T05:00:23.147Z,2.57
2017-09-14T05:02:50.752Z,2.57
2017-09-14T05:05:19.132Z,3.17
2017-09-14T05:07:47.537Z,3.40
2017-09-14T05:10:15.174Z,3.00
2017-09-14T05:12:43.581Z,2.90
2017-09-14T05:15:11.347Z,3.37
2017-09-14T05:17:38.949Z,2.90
2017-09-14T05:20:06.549Z,2.63
2017-09-14T05:22:34.916Z,2.63
2017-09-14T05:25:02.524Z,3.30
2017-09-14T05:27:30.124Z,2.70
2017-09-14T05:29:57.771Z,2.80
2017-09-14T05:32:25.373Z,3.20
2017-09-14T05:34:53.740Z,3.73
2017-09-14T05:37:21.413Z,3.20
2017-09-14T05:39:49.044Z,3.53
2017-09-14T05:42:16.648Z,3.20
2017-09-14T05:44:45.057Z,4.10
2017-09-14T05:47:12.704Z,3.27
2017-09-14T05:49:40.300Z,3.00
2017-09-14T05:52:07.928Z,3.30
2017-09-14T05:54:35.592Z,3.10
2017-09-14T05:57:03.261Z,3.30
2017-09-14T05:59:30.920Z,3.40
2017-09-14T06:01:58.581Z,3.37
2017-09-14T06:04:26.190Z,2.97
2017-09-14T06:06:53.793Z,3.20
2017-09-14T06:09:22.172Z,3.63
2017-09-14T06:11:50.547Z,2.73
2017-09-14T06:14:18.920Z,3.70
2017-09-14T06:16:47.429Z,3.67
2017-09-14T06:19:15.033Z,3.20
2017-09-14T06:21:42.752Z,3.73
2017-09-14T06:24:10.356Z,3.70
2017-09-14T06:26:38.006Z,3.37
2017-09-14T06:29:05.610Z,3.87
2017-09-14T06:31:34.012Z,2.93
2017-09-14T06:34:02.379Z,3.10
2017-09-14T06:36:30.747Z,2.83
2017-09-14T06:38:58.385Z,2.07
2017-09-14T06:41:25.988Z,2.70
2017-09-14T06:43:54.356Z,2.80
2017-09-14T06:46:22.755Z,5.10
2017-09-14T06:48:51.164Z,5.83
2017-09-14T06:51:18.806Z,4.60
2017-09-14T06:53:46.405Z,3.73
2017-09-14T06:56:14.004Z,4.27
2017-09-14T06:58:41.630Z,3.63
2017-09-14T07:01:09.236Z,3.57
2017-09-14T07:03:36.837Z,3.73
2017-09-14T07:06:04.436Z,3.13
2017-09-14T07:08:32.041Z,3.43
2017-09-14T07:10:59.654Z,3.00
2017-09-14T07:13:27.248Z,3.30
2017-09-14T07:15:54.894Z,3.27
2017-09-14T07:18:22.497Z,3.00
2017-09-14T07:20:50.105Z,2.80
2017-09-14T07:23:17.704Z,3.00
2017-09-14T07:25:45.329Z,2.73
2017-09-14T07:28:12.992Z,2.93
2017-09-14T07:30:40.594Z,2.83
2017-09-14T07:33:08.220Z,2.90
2017-09-14T07:35:35.913Z,3.00
2017-09-14T07:38:03.516Z,2.13
2017-09-14T07:40:31.896Z,3.10
2017-09-14T07:43:00.320Z,2.43
2017-09-14T07:45:27.920Z,2.03
2017-09-14T07:47:55.523Z,2.63
2017-09-14T07:50:23.120Z,2.07
2017-09-14T07:52:50.715Z,2.00
2017-09-14T07:55:18.321Z,2.33
2017-09-14T07:57:45.917Z,2.17
2017-09-14T08:00:14.429Z,1.83
2017-09-14T08:02:43.063Z,1.83
2017-09-14T08:05:10.668Z,1.80
2017-09-14T08:07:38.271Z,1.73
2017-09-14T08:10:05.873Z,2.13
2017-09-14T08:12:39.128Z,2.20
2017-09-14T08:15:06.741Z,1.80
2017-09-14T08:17:34.445Z,1.93
2017-09-14T08:20:02.039Z,2.10
2017-09-14T08:22:29.636Z,1.63
2017-09-14T08:24:57.236Z,1.50
2017-09-14T08:27:24.835Z,1.77
2017-09-14T08:29:52.438Z,1.53
2017-09-14T08:32:20.840Z,2.07
2017-09-14T08:34:48.439Z,1.90
2017-09-14T08:37:16.045Z,1.40
2017-09-14T08:39:44.417Z,1.63
2017-09-14T08:42:12.793Z,2.60
2017-09-14T08:44:41.199Z,1.50
2017-09-14T08:47:08.801Z,1.90
2017-09-14T08:49:36.413Z,1.80
2017-09-14T08:52:04.772Z,1.60
2017-09-14T08:54:32.379Z,1.40
2017-09-14T08:56:59.984Z,1.40
2017-09-14T08:59:27.680Z,1.43
2017-09-14T09:01:56.044Z,1.50
2017-09-14T09:04:24.416Z,1.63
2017-09-14T09:06:52.025Z,1.33
2017-09-14T09:09:19.632Z,2.00
2017-09-14T09:11:47.241Z,2.03
2017-09-14T09:14:15.881Z,1.43
2017-09-14T09:16:44.264Z,1.70
2017-09-14T09:19:11.964Z,1.70
2017-09-14T09:21:47.832Z,1.70
2017-09-14T09:24:16.207Z,1.57
2017-09-14T09:26:44.585Z,1.30
2017-09-14T09:29:12.952Z,1.50
2017-09-14T09:31:40.560Z,1.50
2017-09-14T09:34:08.162Z,1.53
2017-09-14T09:36:35.760Z,2.07
2017-09-14T09:39:04.136Z,1.80
2017-09-14T09:41:32.557Z,1.60
2017-09-14T09:44:00.169Z,1.33
2017-09-14T09:46:28.610Z,1.53
2017-09-14T09:48:56.505Z,1.20
2017-09-14T09:51:24.197Z,1.67
2017-09-14T09:53:51.868Z,1.50
2017-09-14T09:56:19.483Z,1.40
2017-09-14T09:58:47.128Z,1.57
2017-09-14T10:01:14.740Z,1.70
2017-09-14T10:03:43.127Z,1.70
2017-09-14T10:06:10.787Z,1.57
2017-09-14T10:08:39.153Z,1.50
2017-09-14T10:11:08.491Z,1.90
2017-09-14T10:13:37.436Z,1.77
2017-09-14T10:16:05.041Z,1.30
2017-09-14T10:18:32.687Z,1.60
2017-09-14T10:21:01.052Z,1.50
2017-09-14T10:23:29.433Z,1.97
2017-09-14T10:25:57.800Z,1.83
2017-09-14T10:28:25.437Z,1.70
2017-09-14T10:30:53.045Z,1.60
2017-09-14T10:33:20.654Z,1.93
2017-09-14T10:35:48.316Z,2.00
2017-09-14T10:38:15.917Z,1.57
2017-09-14T10:40:44.577Z,1.40
2017-09-14T10:43:12.180Z,1.70
2017-09-14T10:45:40.593Z,1.47
2017-09-14T10:48:08.246Z,1.70
2017-09-14T10:50:35.888Z,1.80
2017-09-14T10:53:03.532Z,1.70
2017-09-14T10:55:31.900Z,1.30
2017-09-14T10:57:59.505Z,1.70
2017-09-14T11:00:27.112Z,1.70
2017-09-14T11:02:54.753Z,1.83
2017-09-14T11:05:22.476Z,1.87
2017-09-14T11:07:50.868Z,1.80
2017-09-14T11:10:18.525Z,1.67
2017-09-14T11:12:46.934Z,1.60
2017-09-14T11:15:14.539Z,1.70
2017-09-14T11:17:44.259Z,2.00
2017-09-14T11:20:12.625Z,1.63
2017-09-14T11:22:40.228Z,1.47
2017-09-14T11:25:07.834Z,2.00
2017-09-14T11:27:35.540Z,1.80
2017-09-14T11:30:03.961Z,1.60
2017-09-14T11:32:31.636Z,2.00
2017-09-14T11:34:59.249Z,1.67
2017-09-14T11:37:27.608Z,1.73
2017-09-14T11:39:56.017Z,1.87
2017-09-14T11:42:23.614Z,1.47
2017-09-14T11:44:51.206Z,1.30
2017-09-14T11:47:18.805Z,1.30
2017-09-14T11:49:46.404Z,1.50
2017-09-14T11:52:14.032Z,1.60
2017-09-14T11:54:41.636Z,1.80
2017-09-14T11:57:09.601Z,1.20
2017-09-14T11:59:37.201Z,1.33
2017-09-14T12:02:05.637Z,1.77
2017-09-14T12:04:33.403Z,1.50
2017-09-14T12:07:01.169Z,1.50
2017-09-14T12:09:28.764Z,1.43
2017-09-14T12:11:56.564Z,1.40
2017-09-14T12:14:24.180Z,1.60
2017-09-14T12:16:51.876Z,1.57
2017-09-14T12:19:20.239Z,1.40
2017-09-14T12:21:48.604Z,0.97
2017-09-14T12:24:17.735Z,1.50
2017-09-14T12:26:46.097Z,1.30
2017-09-14T12:29:15.645Z,1.30
2017-09-14T12:31:44.045Z,1.27
2017-09-14T12:34:11.710Z,1.60
2017-09-14T12:36:40.114Z,1.30
2017-09-14T12:39:07.748Z,1.37
2017-09-14T12:41:36.150Z,1.40
2017-09-14T12:44:03.765Z,1.30
2017-09-14T12:46:31.402Z,1.30
2017-09-14T12:48:58.999Z,2.00
2017-09-14T12:51:27.360Z,1.10
2017-09-14T12:53:55.003Z,1.30
2017-09-14T12:56:22.610Z,1.27
2017-09-14T12:58:50.981Z,0.97
2017-09-14T13:01:18.665Z,1.10
2017-09-14T13:03:47.029Z,1.40
2017-09-14T13:06:15.446Z,1.30
2017-09-14T13:08:43.048Z,0.90
2017-09-14T13:11:10.649Z,0.97
2017-09-14T13:13:39.017Z,1.20
2017-09-14T13:16:07.418Z,0.90
2017-09-14T13:18:35.081Z,1.00
2017-09-14T13:21:02.719Z,1.20
2017-09-14T13:23:31.122Z,1.10
2017-09-14T13:25:58.773Z,0.90
2017-09-14T13:28:27.135Z,0.80
2017-09-14T13:30:55.515Z,1.10
2017-09-14T13:33:23.148Z,0.93
2017-09-14T13:35:50.754Z,1.20
2017-09-14T13:38:19.153Z,0.80
2017-09-14T13:40:46.796Z,0.93
2017-09-14T13:43:15.172Z,1.07
2017-09-14T13:45:43.535Z,0.80
2017-09-14T13:48:11.136Z,0.80
2017-09-14T13:50:38.729Z,1.07
2017-09-14T13:53:06.327Z,1.13
2017-09-14T13:55:34.703Z,1.00
2017-09-14T13:58:02.394Z,1.40
2017-09-14T14:00:29.993Z,1.27
2017-09-14T14:02:57.596Z,1.40
2017-09-14T14:05:25.971Z,1.10
2017-09-14T14:07:54.397Z,1.13
2017-09-14T14:10:22.033Z,1.10
2017-09-14T14:12:50.399Z,0.90
2017-09-14T14:15:18.804Z,1.27
2017-09-14T14:17:46.460Z,1.27
2017-09-14T14:20:14.853Z,1.10
2017-09-14T14:22:42.464Z,0.90
2017-09-14T14:25:10.073Z,0.90
2017-09-14T14:27:37.721Z,1.33
2017-09-14T14:30:06.091Z,1.40
2017-09-14T14:32:34.524Z,1.57
2017-09-14T14:35:02.135Z,1.40
2017-09-14T14:37:30.501Z,1.10
2017-09-14T14:39:58.109Z,1.30
2017-09-14T14:42:25.726Z,1.30
2017-09-14T14:44:54.133Z,1.23
2017-09-14T14:47:21.800Z,1.60
2017-09-14T14:49:49.437Z,1.80
2017-09-14T14:52:17.812Z,1.13
2017-09-14T14:54:45.445Z,1.23
2017-09-14T14:57:13.040Z,1.17
2017-09-14T14:59:41.511Z,0.90
2017-09-14T15:02:10.580Z,1.00
2017-09-14T15:04:38.212Z,1.00
2017-09-14T15:07:05.812Z,1.50
2017-09-14T15:09:33.424Z,0.90
2017-09-14T15:12:01.823Z,1.40
2017-09-14T15:14:29.473Z,1.20
2017-09-14T15:16:57.131Z,0.77
2017-09-14T15:19:24.738Z,1.10
2017-09-14T15:21:52.344Z,0.90
2017-09-14T15:24:20.717Z,0.80
2017-09-14T15:26:49.084Z,0.70
2017-09-14T15:29:16.686Z,1.03
2017-09-14T15:31:44.289Z,0.73
2017-09-14T15:34:11.922Z,0.90
2017-09-14T15:36:39.537Z,1.00
2017-09-14T15:42:27.530Z,1.20
2017-09-14T15:45:00.920Z,1.07
2017-09-14T15:47:28.532Z,1.00
2017-09-14T15:50:01.900Z,1.40
2017-09-14T15:52:29.505Z,1.10
2017-09-14T15:54:57.117Z,0.90
2017-09-14T15:57:24.721Z,1.20
2017-09-14T15:59:52.377Z,1.00
2017-09-14T16:02:20.096Z,1.03
2017-09-14T16:04:47.760Z,1.13
2017-09-14T16:07:15.365Z,2.17
2017-09-14T16:09:42.977Z,3.53
2017-09-14T16:12:10.580Z,6.77
2017-09-14T16:14:38.210Z,6.57
2017-09-14T16:17:05.889Z,7.77
2017-09-14T16:19:33.489Z,8.30
2017-09-14T16:22:01.148Z,10.30
2017-09-14T16:24:28.756Z,8.03
2017-09-14T16:26:56.407Z,8.03
2017-09-14T16:29:24.772Z,9.80
2017-09-14T16:31:53.168Z,8.87
2017-09-14T16:34:21.548Z,9.47
2017-09-14T16:36:49.918Z,9.10
2017-09-14T16:39:18.328Z,7.70
2017-09-14T16:41:46.112Z,7.67
2017-09-14T16:44:13.948Z,8.37
2017-09-14T16:46:41.552Z,7.07
2017-09-14T16:49:09.161Z,8.40
2017-09-14T16:51:37.532Z,7.40
2017-09-14T16:54:05.899Z,7.60
2017-09-14T16:56:33.549Z,7.63
2017-09-14T16:59:01.171Z,8.50
2017-09-14T17:01:28.827Z,7.77
2017-09-14T17:03:56.486Z,7.20
2017-09-14T17:06:24.140Z,8.03
2017-09-14T17:08:52.668Z,8.50
2017-09-14T17:11:20.352Z,7.90
2017-09-14T17:13:48.001Z,7.97
2017-09-14T17:16:15.720Z,10.37
2017-09-14T17:18:43.328Z,8.50
2017-09-14T17:21:10.930Z,8.10
2017-09-14T17:23:39.301Z,8.60
2017-09-14T17:26:07.713Z,9.17
2017-09-14T17:28:35.358Z,9.43
2017-09-14T17:31:03.860Z,8.27
2017-09-14T17:33:31.468Z,9.00
2017-09-14T17:35:59.179Z,9.23
2017-09-14T17:38:26.787Z,8.73
2017-09-14T17:40:54.500Z,9.37
2017-09-14T17:43:22.167Z,9.97
2017-09-14T17:45:49.833Z,8.33
2017-09-14T17:48:17.498Z,8.27
2017-09-14T17:50:45.148Z,9.70
2017-09-14T17:53:12.758Z,8.70
2017-09-14T17:55:40.482Z,9.30
2017-09-14T17:58:08.088Z,9.60
2017-09-14T18:00:35.739Z,9.90
2017-09-14T18:03:03.370Z,9.70
2017-09-14T18:05:31.031Z,11.03
2017-09-14T18:07:58.632Z,9.90
2017-09-14T18:10:26.246Z,10.90
2017-09-14T18:12:54.620Z,11.60
2017-09-14T18:15:22.994Z,11.07
2017-09-14T18:17:51.366Z,11.40
2017-09-14T18:20:19.743Z,11.67
2017-09-14T18:22:47.433Z,11.23
2017-09-14T18:25:15.046Z,10.70
2017-09-14T18:27:42.656Z,10.90
2017-09-14T18:30:10.321Z,10.80
2017-09-14T18:32:38.553Z,11.10
2017-09-14T18:35:07.321Z,12.20
2017-09-14T18:37:34.964Z,11.70
2017-09-14T18:40:02.664Z,12.50
2017-09-14T18:42:30.381Z,11.20
2017-09-14T18:44:58.040Z,12.50
2017-09-14T18:47:25.650Z,13.03
2017-09-14T18:49:53.373Z,14.83
2017-09-14T18:52:21.138Z,12.50
2017-09-14T18:54:48.792Z,14.23
2017-09-14T18:57:16.492Z,12.63
2017-09-14T18:59:44.102Z,12.83
2017-09-14T19:02:12.530Z,12.63
2017-09-14T19:04:40.181Z,11.40
2017-09-14T19:07:07.959Z,12.27
2017-09-14T19:09:35.642Z,12.10
2017-09-14T19:12:03.381Z,12.80
2017-09-14T19:14:31.023Z,13.10
2017-09-14T19:16:58.692Z,11.13
2017-09-14T19:19:26.480Z,12.70
2017-09-14T19:21:54.093Z,13.57
2017-09-14T19:24:23.445Z,12.97
2017-09-14T19:26:51.928Z,12.77
2017-09-14T19:29:19.807Z,12.27
2017-09-14T19:31:48.510Z,11.70
2017-09-14T19:34:16.987Z,12.93
2017-09-14T19:36:44.699Z,11.63
2017-09-14T19:39:12.312Z,12.13
2017-09-14T19:41:39.953Z,11.70
2017-09-14T19:44:07.566Z,12.57
2017-09-14T19:46:35.941Z,11.50
2017-09-14T19:49:04.360Z,11.53
2017-09-14T19:51:32.006Z,11.10
2017-09-14T19:53:59.665Z,12.30
2017-09-14T19:56:27.295Z,11.30
2017-09-14T19:58:54.951Z,11.70
2017-09-14T20:01:22.658Z,9.83
2017-09-14T20:03:50.327Z,11.30
2017-09-14T20:06:18.036Z,10.50
2017-09-14T20:08:45.707Z,12.30
2017-09-14T20:11:13.416Z,10.70
2017-09-14T20:13:41.032Z,11.03
2017-09-14T20:16:08.728Z,11.33
2017-09-14T20:18:37.425Z,9.83
2017-09-14T20:21:05.032Z,10.03
2017-09-14T20:23:32.678Z,9.90
2017-09-14T20:26:00.356Z,10.90
2017-09-14T20:28:28.111Z,10.80
2017-09-14T20:30:55.717Z,10.10
2017-09-14T20:33:24.217Z,10.10
2017-09-14T20:35:52.637Z,9.93
2017-09-14T20:38:20.260Z,10.63
2017-09-14T20:40:48.915Z,9.10
2017-09-14T20:43:18.489Z,9.43
2017-09-14T20:45:46.124Z,9.60
2017-09-14T20:48:13.791Z,10.83
2017-09-14T20:50:41.564Z,9.70
2017-09-14T20:53:09.221Z,10.30
2017-09-14T20:55:36.981Z,11.20
2017-09-14T20:58:04.581Z,10.30
2017-09-14T21:00:32.189Z,10.50
2017-09-14T21:03:00.560Z,10.43
2017-09-14T21:05:28.971Z,9.80
2017-09-14T21:07:56.609Z,10.87
2017-09-14T21:10:24.980Z,9.73
2017-09-14T21:12:53.393Z,9.60
2017-09-14T21:15:21.183Z,9.70
2017-09-14T21:17:48.816Z,9.13
2017-09-14T21:20:16.470Z,9.90
2017-09-14T21:22:44.242Z,11.10
2017-09-14T21:25:11.905Z,9.07
2017-09-14T21:27:39.572Z,9.20
2017-09-14T21:30:07.184Z,11.13
2017-09-14T21:32:34.830Z,10.10
2017-09-14T21:35:02.537Z,10.80
2017-09-14T21:37:30.932Z,10.40
2017-09-14T21:39:58.601Z,10.40
2017-09-14T21:42:26.210Z,11.63
2017-09-14T21:44:53.825Z,10.47
2017-09-14T21:47:21.489Z,11.60
2017-09-14T21:49:49.127Z,8.73
2017-09-14T21:52:17.541Z,9.10
2017-09-14T21:54:45.272Z,9.17
2017-09-14T21:57:13.652Z,8.67
2017-09-14T21:59:42.072Z,9.00
2017-09-14T22:02:09.676Z,8.87
2017-09-14T22:04:38.047Z,8.30
2017-09-14T22:07:05.661Z,8.47
2017-09-14T22:09:33.312Z,9.13
2017-09-14T22:12:01.832Z,8.43
2017-09-14T22:14:29.432Z,7.50
2017-09-14T22:16:57.040Z,7.67
2017-09-14T22:19:24.688Z,7.50
2017-09-14T22:21:52.296Z,7.33
2017-09-14T22:24:19.900Z,6.07
2017-09-14T22:26:48.285Z,6.67
2017-09-14T22:29:16.657Z,7.20
2017-09-14T22:31:45.096Z,7.03
2017-09-14T22:34:12.808Z,7.13
2017-09-14T22:36:41.182Z,6.33
2017-09-14T22:39:09.568Z,5.77
2017-09-14T22:41:37.932Z,5.83
2017-09-14T22:44:06.301Z,6.40
2017-09-14T22:46:34.000Z,7.03
2017-09-14T22:49:01.661Z,6.27
2017-09-14T22:51:29.270Z,5.60
2017-09-14T22:53:56.872Z,6.40
2017-09-14T22:56:25.272Z,6.20
2017-09-14T22:58:52.927Z,5.50
2017-09-14T23:01:20.580Z,5.63
2017-09-14T23:03:48.994Z,5.27
2017-09-14T23:06:16.633Z,5.77
2017-09-14T23:08:44.289Z,5.77
2017-09-14T23:11:12.654Z,5.10
2017-09-14T23:13:41.052Z,6.00
2017-09-14T23:16:09.591Z,5.87
2017-09-14T23:18:37.226Z,5.83
2017-09-14T23:21:04.825Z,5.13
2017-09-14T23:23:32.461Z,5.80
2017-09-14T23:26:00.066Z,5.60
2017-09-14T23:28:28.468Z,4.87
2017-09-14T23:30:56.069Z,5.50
2017-09-14T23:33:23.676Z,4.83
2017-09-14T23:35:52.036Z,4.70
2017-09-14T23:38:19.669Z,4.50
2017-09-14T23:40:47.285Z,5.07
2017-09-14T23:43:15.699Z,5.03
2017-09-14T23:45:43.295Z,4.27
2017-09-14T23:48:10.897Z,5.13
2017-09-14T23:50:38.553Z,4.23
2017-09-14T23:53:06.922Z,5.13
2017-09-14T23:55:35.331Z,4.67
2017-09-14T23:58:02.924Z,4.57
